sensor_id;sensor_type;location;lat;lon;timestamp;temperature;humidity
66710;DHT22;53624;0.000;0.000;2022-11-15T00:00:43;13.30;99.90
66710;DHT22;53624;0.000;0.000;2022-11-15T00:03:29;13.30;99.90
66710;DHT22;53624;0.000;0.000;2022-11-15T00:06:15;13.30;99.90
66710;DHT22;53624;0.000;0.000;2022-11-15T00:09:00;13.30;99.90
66710;DHT22;53624;0.000;0.000;2022-11-15T00:11:49;13.30;99.90
66710;DHT22;53624;0.000;0.000;2022-11-15T00:14:37;13.30;99.90
66710;DHT22;53624;0.000;0.000;2022-11-15T00:17:23;13.30;99.90
66710;DHT22;53624;0.000;0.000;2022-11-15T00:20:09;13.30;99.90
66710;DHT22;53624;0.000;0.000;2022-11-15T00:22:56;13.30;99.90
66710;DHT22;53624;0.000;0.000;2022-11-15T00:25:41;13.30;99.90
66710;DHT22;53624;0.000;0.000;2022-11-15T00:28:29;13.20;99.90
66710;DHT22;53624;0.000;0.000;2022-11-15T00:31:15;13.20;99.90
66710;DHT22;53624;0.000;0.000;2022-11-15T00:34:01;13.20;99.90
66710;DHT22;53624;0.000;0.000;2022-11-15T00:36:47;13.20;99.90
66710;DHT22;53624;0.000;0.000;2022-11-15T00:39:33;13.20;99.90
66710;DHT22;53624;0.000;0.000;2022-11-15T00:42:19;13.20;99.90
66710;DHT22;53624;0.000;0.000;2022-11-15T00:45:07;13.20;99.90
66710;DHT22;53624;0.000;0.000;2022-11-15T00:47:53;13.20;99.90
66710;DHT22;53624;0.000;0.000;2022-11-15T00:50:39;13.20;99.90
66710;DHT22;53624;0.000;0.000;2022-11-15T00:53:25;13.20;99.90
66710;DHT22;53624;0.000;0.000;2022-11-15T00:56:11;13.20;99.90
66710;DHT22;53624;0.000;0.000;2022-11-15T00:58:56;13.20;99.90
66710;DHT22;53624;0.000;0.000;2022-11-15T01:01:44;13.20;99.90
66710;DHT22;53624;0.000;0.000;2022-11-15T01:04:30;13.20;99.90
66710;DHT22;53624;0.000;0.000;2022-11-15T01:07:15;13.20;99.90
66710;DHT22;53624;0.000;0.000;2022-11-15T01:10:01;13.20;99.90
66710;DHT22;53624;0.000;0.000;2022-11-15T01:12:48;13.20;99.90
66710;DHT22;53624;0.000;0.000;2022-11-15T01:15:34;13.20;99.90
66710;DHT22;53624;0.000;0.000;2022-11-15T01:18:21;13.20;99.90
66710;DHT22;53624;0.000;0.000;2022-11-15T01:21:08;13.20;99.90
66710;DHT22;53624;0.000;0.000;2022-11-15T01:23:54;13.20;99.90
66710;DHT22;53624;0.000;0.000;2022-11-15T01:26:40;13.20;99.90
66710;DHT22;53624;0.000;0.000;2022-11-15T01:29:26;13.20;99.90
66710;DHT22;53624;0.000;0.000;2022-11-15T01:32:12;13.20;99.90
66710;DHT22;53624;0.000;0.000;2022-11-15T01:34:59;13.20;99.90
66710;DHT22;53624;0.000;0.000;2022-11-15T01:37:45;13.20;99.90
66710;DHT22;53624;0.000;0.000;2022-11-15T01:40:31;13.20;99.90
66710;DHT22;53624;0.000;0.000;2022-11-15T01:43:21;13.20;99.90
66710;DHT22;53624;0.000;0.000;2022-11-15T01:46:11;13.20;99.90
66710;DHT22;53624;0.000;0.000;2022-11-15T01:49:04;13.20;99.90
66710;DHT22;53624;0.000;0.000;2022-11-15T01:51:56;13.20;99.90
66710;DHT22;53624;0.000;0.000;2022-11-15T01:54:42;13.20;99.90
66710;DHT22;53624;0.000;0.000;2022-11-15T01:57:29;13.20;99.90
66710;DHT22;53624;0.000;0.000;2022-11-15T02:00:15;13.20;99.90
66710;DHT22;53624;0.000;0.000;2022-11-15T02:03:02;13.20;99.90
66710;DHT22;53624;0.000;0.000;2022-11-15T02:05:48;13.10;99.90
66710;DHT22;53624;0.000;0.000;2022-11-15T02:08:36;13.20;99.90
66710;DHT22;53624;0.000;0.000;2022-11-15T02:11:23;13.20;99.90
66710;DHT22;53624;0.000;0.000;2022-11-15T02:14:08;13.20;99.90
66710;DHT22;53624;0.000;0.000;2022-11-15T02:16:58;13.20;99.90
66710;DHT22;53624;0.000;0.000;2022-11-15T02:23:00;13.10;99.90
66710;DHT22;53624;0.000;0.000;2022-11-15T02:25:54;13.10;99.90
66710;DHT22;53624;0.000;0.000;2022-11-15T02:28:48;13.10;99.90
66710;DHT22;53624;0.000;0.000;2022-11-15T02:31:39;13.10;99.90
66710;DHT22;53624;0.000;0.000;2022-11-15T02:34:28;13.10;99.90
66710;DHT22;53624;0.000;0.000;2022-11-15T02:37:20;13.10;99.90
66710;DHT22;53624;0.000;0.000;2022-11-15T02:40:10;13.10;99.90
66710;DHT22;53624;0.000;0.000;2022-11-15T02:42:59;13.10;99.90
66710;DHT22;53624;0.000;0.000;2022-11-15T02:46:04;13.10;99.90
66710;DHT22;53624;0.000;0.000;2022-11-15T02:48:54;13.10;99.90
66710;DHT22;53624;0.000;0.000;2022-11-15T02:51:40;13.10;99.90
66710;DHT22;53624;0.000;0.000;2022-11-15T02:54:28;13.10;99.90
66710;DHT22;53624;0.000;0.000;2022-11-15T02:57:16;13.10;99.90
66710;DHT22;53624;0.000;0.000;2022-11-15T03:00:04;13.10;99.90
66710;DHT22;53624;0.000;0.000;2022-11-15T03:03:02;13.10;99.90
66710;DHT22;53624;0.000;0.000;2022-11-15T03:05:52;13.10;99.90
66710;DHT22;53624;0.000;0.000;2022-11-15T03:08:40;13.10;99.90
66710;DHT22;53624;0.000;0.000;2022-11-15T03:11:32;13.10;99.90
66710;DHT22;53624;0.000;0.000;2022-11-15T03:14:21;13.10;99.90
66710;DHT22;53624;0.000;0.000;2022-11-15T03:17:10;13.10;99.90
66710;DHT22;53624;0.000;0.000;2022-11-15T03:20:00;13.10;99.90
66710;DHT22;53624;0.000;0.000;2022-11-15T03:22:49;13.10;99.90
66710;DHT22;53624;0.000;0.000;2022-11-15T03:25:36;13.10;99.90
66710;DHT22;53624;0.000;0.000;2022-11-15T03:28:25;13.10;99.90
66710;DHT22;53624;0.000;0.000;2022-11-15T03:31:14;13.10;99.90
66710;DHT22;53624;0.000;0.000;2022-11-15T03:34:19;13.10;99.90
66710;DHT22;53624;0.000;0.000;2022-11-15T03:37:07;13.10;99.90
66710;DHT22;53624;0.000;0.000;2022-11-15T03:39:55;13.10;99.90
66710;DHT22;53624;0.000;0.000;2022-11-15T03:42:42;13.10;99.90
66710;DHT22;53624;0.000;0.000;2022-11-15T03:45:31;13.10;99.90
66710;DHT22;53624;0.000;0.000;2022-11-15T03:48:18;13.10;99.90
66710;DHT22;53624;0.000;0.000;2022-11-15T03:51:05;13.10;99.90
66710;DHT22;53624;0.000;0.000;2022-11-15T03:53:51;13.10;99.90
66710;DHT22;53624;0.000;0.000;2022-11-15T03:56:39;13.10;99.90
66710;DHT22;53624;0.000;0.000;2022-11-15T03:59:25;13.10;99.90
66710;DHT22;53624;0.000;0.000;2022-11-15T04:02:11;13.10;99.90
66710;DHT22;53624;0.000;0.000;2022-11-15T04:04:56;13.10;99.90
66710;DHT22;53624;0.000;0.000;2022-11-15T04:07:42;13.10;99.90
66710;DHT22;53624;0.000;0.000;2022-11-15T04:10:28;13.10;99.90
66710;DHT22;53624;0.000;0.000;2022-11-15T04:13:15;13.10;99.90
66710;DHT22;53624;0.000;0.000;2022-11-15T04:16:01;13.10;99.90
66710;DHT22;53624;0.000;0.000;2022-11-15T04:18:47;13.10;99.90
66710;DHT22;53624;0.000;0.000;2022-11-15T04:21:54;13.10;99.90
66710;DHT22;53624;0.000;0.000;2022-11-15T04:24:57;13.00;99.90
66710;DHT22;53624;0.000;0.000;2022-11-15T04:27:43;13.00;99.90
66710;DHT22;53624;0.000;0.000;2022-11-15T04:30:30;13.00;99.90
66710;DHT22;53624;0.000;0.000;2022-11-15T04:33:16;13.00;99.90
66710;DHT22;53624;0.000;0.000;2022-11-15T04:36:03;13.00;99.90
66710;DHT22;53624;0.000;0.000;2022-11-15T04:39:07;13.00;99.90
66710;DHT22;53624;0.000;0.000;2022-11-15T04:41:53;13.00;99.90
66710;DHT22;53624;0.000;0.000;2022-11-15T04:44:38;13.00;99.90
66710;DHT22;53624;0.000;0.000;2022-11-15T04:47:26;13.00;99.90
66710;DHT22;53624;0.000;0.000;2022-11-15T04:50:12;13.00;99.90
66710;DHT22;53624;0.000;0.000;2022-11-15T04:52:58;13.00;99.90
66710;DHT22;53624;0.000;0.000;2022-11-15T04:55:44;13.00;99.90
66710;DHT22;53624;0.000;0.000;2022-11-15T04:58:30;13.00;99.90
66710;DHT22;53624;0.000;0.000;2022-11-15T05:01:16;13.00;99.90
66710;DHT22;53624;0.000;0.000;2022-11-15T05:04:03;13.00;99.90
66710;DHT22;53624;0.000;0.000;2022-11-15T05:07:03;13.00;99.90
66710;DHT22;53624;0.000;0.000;2022-11-15T05:09:49;13.00;99.90
66710;DHT22;53624;0.000;0.000;2022-11-15T05:12:35;13.00;99.90
66710;DHT22;53624;0.000;0.000;2022-11-15T05:15:21;13.00;99.90
66710;DHT22;53624;0.000;0.000;2022-11-15T05:18:07;13.00;99.90
66710;DHT22;53624;0.000;0.000;2022-11-15T05:20:54;13.00;99.90
66710;DHT22;53624;0.000;0.000;2022-11-15T05:23:41;13.00;99.90
66710;DHT22;53624;0.000;0.000;2022-11-15T05:26:26;13.00;99.90
66710;DHT22;53624;0.000;0.000;2022-11-15T05:29:12;13.00;99.90
66710;DHT22;53624;0.000;0.000;2022-11-15T05:31:58;13.00;99.90
66710;DHT22;53624;0.000;0.000;2022-11-15T05:34:44;13.00;99.90
66710;DHT22;53624;0.000;0.000;2022-11-15T05:37:32;13.00;99.90
66710;DHT22;53624;0.000;0.000;2022-11-15T05:40:18;13.00;99.90
66710;DHT22;53624;0.000;0.000;2022-11-15T05:43:04;13.00;99.90
66710;DHT22;53624;0.000;0.000;2022-11-15T05:45:51;13.00;99.90
66710;DHT22;53624;0.000;0.000;2022-11-15T05:48:36;13.00;99.90
66710;DHT22;53624;0.000;0.000;2022-11-15T05:51:23;13.00;99.90
66710;DHT22;53624;0.000;0.000;2022-11-15T05:54:11;13.00;99.90
66710;DHT22;53624;0.000;0.000;2022-11-15T05:56:57;13.00;99.90
66710;DHT22;53624;0.000;0.000;2022-11-15T05:59:43;13.00;99.90
66710;DHT22;53624;0.000;0.000;2022-11-15T06:02:29;13.00;99.90
66710;DHT22;53624;0.000;0.000;2022-11-15T06:05:15;13.00;99.90
66710;DHT22;53624;0.000;0.000;2022-11-15T06:08:01;13.00;99.90
66710;DHT22;53624;0.000;0.000;2022-11-15T06:10:48;13.00;99.90
66710;DHT22;53624;0.000;0.000;2022-11-15T06:13:34;13.00;99.90
66710;DHT22;53624;0.000;0.000;2022-11-15T06:16:20;13.00;99.90
66710;DHT22;53624;0.000;0.000;2022-11-15T06:19:06;12.90;99.90
66710;DHT22;53624;0.000;0.000;2022-11-15T06:21:52;13.00;99.90
66710;DHT22;53624;0.000;0.000;2022-11-15T06:24:38;13.00;99.90
66710;DHT22;53624;0.000;0.000;2022-11-15T06:27:25;12.90;99.90
66710;DHT22;53624;0.000;0.000;2022-11-15T06:30:11;12.90;99.90
66710;DHT22;53624;0.000;0.000;2022-11-15T06:33:01;12.90;99.90
66710;DHT22;53624;0.000;0.000;2022-11-15T06:35:47;12.90;99.90
66710;DHT22;53624;0.000;0.000;2022-11-15T06:38:33;12.90;99.90
66710;DHT22;53624;0.000;0.000;2022-11-15T06:41:20;12.90;99.90
66710;DHT22;53624;0.000;0.000;2022-11-15T06:44:08;12.90;99.90
66710;DHT22;53624;0.000;0.000;2022-11-15T06:46:54;12.90;99.90
66710;DHT22;53624;0.000;0.000;2022-11-15T06:49:40;12.90;99.90
66710;DHT22;53624;0.000;0.000;2022-11-15T06:52:26;13.00;99.90
66710;DHT22;53624;0.000;0.000;2022-11-15T06:55:16;12.90;99.90
66710;DHT22;53624;0.000;0.000;2022-11-15T06:58:02;13.00;99.90
66710;DHT22;53624;0.000;0.000;2022-11-15T07:00:49;12.90;99.90
66710;DHT22;53624;0.000;0.000;2022-11-15T07:03:36;13.00;99.90
66710;DHT22;53624;0.000;0.000;2022-11-15T07:06:22;13.00;99.90
66710;DHT22;53624;0.000;0.000;2022-11-15T07:09:08;13.00;99.90
66710;DHT22;53624;0.000;0.000;2022-11-15T07:11:53;13.00;99.90
66710;DHT22;53624;0.000;0.000;2022-11-15T07:14:39;13.00;99.90
66710;DHT22;53624;0.000;0.000;2022-11-15T07:17:27;13.00;99.90
66710;DHT22;53624;0.000;0.000;2022-11-15T07:20:13;13.00;99.90
66710;DHT22;53624;0.000;0.000;2022-11-15T07:23:00;13.00;99.90
66710;DHT22;53624;0.000;0.000;2022-11-15T07:25:46;13.00;99.90
66710;DHT22;53624;0.000;0.000;2022-11-15T07:28:32;13.00;99.90
66710;DHT22;53624;0.000;0.000;2022-11-15T07:31:18;13.10;99.90
66710;DHT22;53624;0.000;0.000;2022-11-15T07:34:05;13.10;99.90
66710;DHT22;53624;0.000;0.000;2022-11-15T07:36:51;13.10;99.90
66710;DHT22;53624;0.000;0.000;2022-11-15T07:39:37;13.10;99.90
66710;DHT22;53624;0.000;0.000;2022-11-15T07:42:23;13.10;99.90
66710;DHT22;53624;0.000;0.000;2022-11-15T07:45:26;13.10;99.90
66710;DHT22;53624;0.000;0.000;2022-11-15T07:48:12;13.20;99.90
66710;DHT22;53624;0.000;0.000;2022-11-15T07:50:59;13.20;99.90
66710;DHT22;53624;0.000;0.000;2022-11-15T07:53:45;13.20;99.90
66710;DHT22;53624;0.000;0.000;2022-11-15T07:56:31;13.20;99.90
66710;DHT22;53624;0.000;0.000;2022-11-15T07:59:17;13.20;99.90
66710;DHT22;53624;0.000;0.000;2022-11-15T08:02:03;13.30;99.90
66710;DHT22;53624;0.000;0.000;2022-11-15T08:04:49;13.30;99.90
66710;DHT22;53624;0.000;0.000;2022-11-15T08:07:36;13.30;99.90
66710;DHT22;53624;0.000;0.000;2022-11-15T08:10:24;13.30;99.90
66710;DHT22;53624;0.000;0.000;2022-11-15T08:13:10;13.30;99.90
66710;DHT22;53624;0.000;0.000;2022-11-15T08:15:57;13.30;99.90
66710;DHT22;53624;0.000;0.000;2022-11-15T08:18:43;13.30;99.90
66710;DHT22;53624;0.000;0.000;2022-11-15T08:21:29;13.40;99.90
66710;DHT22;53624;0.000;0.000;2022-11-15T08:24:16;13.30;99.90
66710;DHT22;53624;0.000;0.000;2022-11-15T08:27:02;13.40;99.90
66710;DHT22;53624;0.000;0.000;2022-11-15T08:29:48;13.40;99.90
66710;DHT22;53624;0.000;0.000;2022-11-15T08:32:35;13.50;99.90
66710;DHT22;53624;0.000;0.000;2022-11-15T08:35:21;13.40;99.90
66710;DHT22;53624;0.000;0.000;2022-11-15T08:38:08;13.40;99.90
66710;DHT22;53624;0.000;0.000;2022-11-15T08:40:58;13.50;99.90
66710;DHT22;53624;0.000;0.000;2022-11-15T08:43:45;13.50;99.90
66710;DHT22;53624;0.000;0.000;2022-11-15T08:46:31;13.50;99.90
66710;DHT22;53624;0.000;0.000;2022-11-15T08:49:17;13.50;99.90
66710;DHT22;53624;0.000;0.000;2022-11-15T08:52:03;13.60;99.90
66710;DHT22;53624;0.000;0.000;2022-11-15T08:54:49;13.60;99.90
66710;DHT22;53624;0.000;0.000;2022-11-15T08:57:36;13.60;99.90
66710;DHT22;53624;0.000;0.000;2022-11-15T09:00:22;13.60;99.90
66710;DHT22;53624;0.000;0.000;2022-11-15T09:03:08;13.60;99.90
66710;DHT22;53624;0.000;0.000;2022-11-15T09:05:55;13.60;99.90
66710;DHT22;53624;0.000;0.000;2022-11-15T09:08:41;13.70;99.90
66710;DHT22;53624;0.000;0.000;2022-11-15T09:11:27;13.70;99.90
66710;DHT22;53624;0.000;0.000;2022-11-15T09:14:14;13.70;99.90
66710;DHT22;53624;0.000;0.000;2022-11-15T09:17:00;13.70;99.90
66710;DHT22;53624;0.000;0.000;2022-11-15T09:19:46;13.70;99.90
66710;DHT22;53624;0.000;0.000;2022-11-15T09:22:32;13.80;99.90
66710;DHT22;53624;0.000;0.000;2022-11-15T09:25:18;13.80;99.90
66710;DHT22;53624;0.000;0.000;2022-11-15T09:28:05;13.80;99.90
66710;DHT22;53624;0.000;0.000;2022-11-15T09:30:55;13.80;99.90
66710;DHT22;53624;0.000;0.000;2022-11-15T09:33:43;13.80;99.90
66710;DHT22;53624;0.000;0.000;2022-11-15T09:36:29;13.90;99.90
66710;DHT22;53624;0.000;0.000;2022-11-15T09:39:14;13.90;99.90
66710;DHT22;53624;0.000;0.000;2022-11-15T09:42:07;14.00;99.90
66710;DHT22;53624;0.000;0.000;2022-11-15T09:44:58;14.00;99.90
66710;DHT22;53624;0.000;0.000;2022-11-15T09:47:49;14.10;99.90
66710;DHT22;53624;0.000;0.000;2022-11-15T09:50:40;14.10;99.90
66710;DHT22;53624;0.000;0.000;2022-11-15T09:53:11;14.20;99.90
66710;DHT22;53624;0.000;0.000;2022-11-15T09:55:40;14.20;99.90
66710;DHT22;53624;0.000;0.000;2022-11-15T09:58:15;14.20;99.90
66710;DHT22;53624;0.000;0.000;2022-11-15T10:00:46;14.30;99.90
66710;DHT22;53624;0.000;0.000;2022-11-15T10:03:22;14.30;99.90
66710;DHT22;53624;0.000;0.000;2022-11-15T10:05:51;14.30;99.90
66710;DHT22;53624;0.000;0.000;2022-11-15T10:08:28;14.30;99.90
66710;DHT22;53624;0.000;0.000;2022-11-15T10:10:59;14.30;99.90
66710;DHT22;53624;0.000;0.000;2022-11-15T10:13:28;14.30;99.90
66710;DHT22;53624;0.000;0.000;2022-11-15T10:15:59;14.30;99.90
66710;DHT22;53624;0.000;0.000;2022-11-15T10:18:34;14.30;99.90
66710;DHT22;53624;0.000;0.000;2022-11-15T10:21:07;14.30;99.90
66710;DHT22;53624;0.000;0.000;2022-11-15T10:23:39;14.30;99.90
66710;DHT22;53624;0.000;0.000;2022-11-15T10:26:07;14.40;99.90
66710;DHT22;53624;0.000;0.000;2022-11-15T10:28:36;14.40;99.90
66710;DHT22;53624;0.000;0.000;2022-11-15T10:31:10;14.40;99.90
66710;DHT22;53624;0.000;0.000;2022-11-15T10:33:49;14.40;99.90
66710;DHT22;53624;0.000;0.000;2022-11-15T10:36:17;14.40;99.90
66710;DHT22;53624;0.000;0.000;2022-11-15T10:38:52;14.40;99.90
66710;DHT22;53624;0.000;0.000;2022-11-15T10:41:21;14.40;99.90
66710;DHT22;53624;0.000;0.000;2022-11-15T10:44:01;14.40;99.90
66710;DHT22;53624;0.000;0.000;2022-11-15T10:46:28;14.30;99.90
66710;DHT22;53624;0.000;0.000;2022-11-15T10:49:04;14.40;99.90
66710;DHT22;53624;0.000;0.000;2022-11-15T10:51:40;14.40;99.90
66710;DHT22;53624;0.000;0.000;2022-11-15T10:54:08;14.40;99.90
66710;DHT22;53624;0.000;0.000;2022-11-15T10:56:37;14.40;99.90
66710;DHT22;53624;0.000;0.000;2022-11-15T10:59:04;14.40;99.90
66710;DHT22;53624;0.000;0.000;2022-11-15T11:01:32;14.40;99.90
66710;DHT22;53624;0.000;0.000;2022-11-15T11:04:13;14.40;99.90
66710;DHT22;53624;0.000;0.000;2022-11-15T11:06:48;14.40;99.90
66710;DHT22;53624;0.000;0.000;2022-11-15T11:09:22;14.40;99.90
66710;DHT22;53624;0.000;0.000;2022-11-15T11:11:50;14.40;99.90
66710;DHT22;53624;0.000;0.000;2022-11-15T11:14:19;14.40;99.90
66710;DHT22;53624;0.000;0.000;2022-11-15T11:16:48;14.40;99.90
66710;DHT22;53624;0.000;0.000;2022-11-15T11:19:23;14.40;99.90
66710;DHT22;53624;0.000;0.000;2022-11-15T11:21:55;14.40;99.90
66710;DHT22;53624;0.000;0.000;2022-11-15T11:24:29;14.40;99.90
66710;DHT22;53624;0.000;0.000;2022-11-15T11:27:01;14.40;99.90
66710;DHT22;53624;0.000;0.000;2022-11-15T11:29:35;14.40;99.90
66710;DHT22;53624;0.000;0.000;2022-11-15T11:32:07;14.40;99.90
66710;DHT22;53624;0.000;0.000;2022-11-15T11:34:44;14.40;99.90
66710;DHT22;53624;0.000;0.000;2022-11-15T11:37:17;14.40;99.90
66710;DHT22;53624;0.000;0.000;2022-11-15T11:39:51;14.40;99.90
66710;DHT22;53624;0.000;0.000;2022-11-15T11:42:24;14.40;99.90
66710;DHT22;53624;0.000;0.000;2022-11-15T11:44:55;14.50;99.90
66710;DHT22;53624;0.000;0.000;2022-11-15T11:47:29;14.50;99.90
66710;DHT22;53624;0.000;0.000;2022-11-15T11:50:02;14.50;99.90
66710;DHT22;53624;0.000;0.000;2022-11-15T11:52:38;14.50;99.90
66710;DHT22;53624;0.000;0.000;2022-11-15T11:55:11;14.50;99.90
66710;DHT22;53624;0.000;0.000;2022-11-15T11:57:41;14.50;99.90
66710;DHT22;53624;0.000;0.000;2022-11-15T12:00:15;14.50;99.90
66710;DHT22;53624;0.000;0.000;2022-11-15T12:02:45;14.60;99.90
66710;DHT22;53624;0.000;0.000;2022-11-15T12:05:18;14.60;99.90
66710;DHT22;53624;0.000;0.000;2022-11-15T12:07:47;14.60;99.90
66710;DHT22;53624;0.000;0.000;2022-11-15T12:10:19;14.60;99.90
66710;DHT22;53624;0.000;0.000;2022-11-15T12:12:50;14.60;99.90
66710;DHT22;53624;0.000;0.000;2022-11-15T12:15:21;14.70;99.90
66710;DHT22;53624;0.000;0.000;2022-11-15T12:17:49;14.70;99.90
66710;DHT22;53624;0.000;0.000;2022-11-15T12:20:19;14.70;99.90
66710;DHT22;53624;0.000;0.000;2022-11-15T12:22:54;14.70;99.90
66710;DHT22;53624;0.000;0.000;2022-11-15T12:25:25;14.70;99.90
66710;DHT22;53624;0.000;0.000;2022-11-15T12:27:56;14.70;99.90
66710;DHT22;53624;0.000;0.000;2022-11-15T12:30:25;14.70;99.90
66710;DHT22;53624;0.000;0.000;2022-11-15T12:32:54;14.70;99.90
66710;DHT22;53624;0.000;0.000;2022-11-15T12:35:29;14.70;99.90
66710;DHT22;53624;0.000;0.000;2022-11-15T12:37:57;14.70;99.90
66710;DHT22;53624;0.000;0.000;2022-11-15T12:40:32;14.70;99.90
66710;DHT22;53624;0.000;0.000;2022-11-15T12:43:04;14.60;99.90
66710;DHT22;53624;0.000;0.000;2022-11-15T12:45:32;14.70;99.90
66710;DHT22;53624;0.000;0.000;2022-11-15T12:50:54;14.70;99.90
66710;DHT22;53624;0.000;0.000;2022-11-15T12:53:27;14.70;99.90
66710;DHT22;53624;0.000;0.000;2022-11-15T12:56:08;14.70;99.90
66710;DHT22;53624;0.000;0.000;2022-11-15T12:58:40;14.70;99.90
66710;DHT22;53624;0.000;0.000;2022-11-15T13:01:08;14.80;99.90
66710;DHT22;53624;0.000;0.000;2022-11-15T13:03:43;14.80;99.90
66710;DHT22;53624;0.000;0.000;2022-11-15T13:06:36;14.80;99.90
66710;DHT22;53624;0.000;0.000;2022-11-15T13:09:49;14.80;99.90
66710;DHT22;53624;0.000;0.000;2022-11-15T13:11:54;14.80;99.90
66710;DHT22;53624;0.000;0.000;2022-11-15T13:17:27;14.80;99.90
66710;DHT22;53624;0.000;0.000;2022-11-15T13:19:58;14.70;99.90
66710;DHT22;53624;0.000;0.000;2022-11-15T13:22:27;14.70;99.90
66710;DHT22;53624;0.000;0.000;2022-11-15T13:25:16;14.80;99.90
66710;DHT22;53624;0.000;0.000;2022-11-15T13:27:46;14.80;99.90
66710;DHT22;53624;0.000;0.000;2022-11-15T13:30:15;14.80;99.90
66710;DHT22;53624;0.000;0.000;2022-11-15T13:32:45;14.80;99.90
66710;DHT22;53624;0.000;0.000;2022-11-15T13:35:17;14.80;99.90
66710;DHT22;53624;0.000;0.000;2022-11-15T13:37:47;14.80;99.90
66710;DHT22;53624;0.000;0.000;2022-11-15T13:40:24;14.80;99.90
66710;DHT22;53624;0.000;0.000;2022-11-15T13:42:53;14.70;99.90
66710;DHT22;53624;0.000;0.000;2022-11-15T13:45:21;14.70;99.90
66710;DHT22;53624;0.000;0.000;2022-11-15T13:47:53;14.70;99.90
66710;DHT22;53624;0.000;0.000;2022-11-15T13:50:21;14.70;99.90
66710;DHT22;53624;0.000;0.000;2022-11-15T13:52:50;14.70;99.90
66710;DHT22;53624;0.000;0.000;2022-11-15T13:55:19;14.70;99.90
66710;DHT22;53624;0.000;0.000;2022-11-15T13:57:48;14.70;99.90
66710;DHT22;53624;0.000;0.000;2022-11-15T14:00:26;14.70;99.90
66710;DHT22;53624;0.000;0.000;2022-11-15T14:02:54;14.70;99.90
66710;DHT22;53624;0.000;0.000;2022-11-15T14:05:23;14.60;99.90
66710;DHT22;53624;0.000;0.000;2022-11-15T14:07:55;14.60;99.90
66710;DHT22;53624;0.000;0.000;2022-11-15T14:10:27;14.60;99.90
66710;DHT22;53624;0.000;0.000;2022-11-15T14:12:55;14.60;99.90
66710;DHT22;53624;0.000;0.000;2022-11-15T14:15:27;14.70;99.90
66710;DHT22;53624;0.000;0.000;2022-11-15T14:17:55;14.70;99.90
66710;DHT22;53624;0.000;0.000;2022-11-15T14:20:30;14.70;99.90
66710;DHT22;53624;0.000;0.000;2022-11-15T14:23:00;14.70;99.90
66710;DHT22;53624;0.000;0.000;2022-11-15T14:25:29;14.70;99.90
66710;DHT22;53624;0.000;0.000;2022-11-15T14:28:10;14.70;99.90
66710;DHT22;53624;0.000;0.000;2022-11-15T14:30:38;14.60;99.90
66710;DHT22;53624;0.000;0.000;2022-11-15T14:33:15;14.60;99.90
66710;DHT22;53624;0.000;0.000;2022-11-15T14:35:44;14.60;99.90
66710;DHT22;53624;0.000;0.000;2022-11-15T14:38:13;14.60;99.90
66710;DHT22;53624;0.000;0.000;2022-11-15T14:40:40;14.60;99.90
66710;DHT22;53624;0.000;0.000;2022-11-15T14:43:09;14.50;99.90
66710;DHT22;53624;0.000;0.000;2022-11-15T14:45:37;14.50;99.90
66710;DHT22;53624;0.000;0.000;2022-11-15T14:48:04;14.50;99.90
66710;DHT22;53624;0.000;0.000;2022-11-15T14:50:32;14.50;99.90
66710;DHT22;53624;0.000;0.000;2022-11-15T14:53:00;14.50;99.90
66710;DHT22;53624;0.000;0.000;2022-11-15T14:55:29;14.50;99.90
66710;DHT22;53624;0.000;0.000;2022-11-15T14:58:00;14.50;99.90
66710;DHT22;53624;0.000;0.000;2022-11-15T15:00:28;14.40;99.90
66710;DHT22;53624;0.000;0.000;2022-11-15T15:02:56;14.40;99.90
66710;DHT22;53624;0.000;0.000;2022-11-15T15:05:24;14.40;99.90
66710;DHT22;53624;0.000;0.000;2022-11-15T15:07:52;14.40;99.90
66710;DHT22;53624;0.000;0.000;2022-11-15T15:10:20;14.40;99.90
66710;DHT22;53624;0.000;0.000;2022-11-15T15:12:49;14.40;99.90
66710;DHT22;53624;0.000;0.000;2022-11-15T15:15:18;14.40;99.90
66710;DHT22;53624;0.000;0.000;2022-11-15T15:17:46;14.40;99.90
66710;DHT22;53624;0.000;0.000;2022-11-15T15:20:14;14.40;99.90
66710;DHT22;53624;0.000;0.000;2022-11-15T15:22:42;14.40;99.90
66710;DHT22;53624;0.000;0.000;2022-11-15T15:25:17;14.30;99.90
66710;DHT22;53624;0.000;0.000;2022-11-15T15:27:46;14.30;99.90
66710;DHT22;53624;0.000;0.000;2022-11-15T15:30:15;14.30;99.90
66710;DHT22;53624;0.000;0.000;2022-11-15T15:32:42;14.30;99.90
66710;DHT22;53624;0.000;0.000;2022-11-15T15:35:11;14.30;99.90
66710;DHT22;53624;0.000;0.000;2022-11-15T15:37:38;14.30;99.90
66710;DHT22;53624;0.000;0.000;2022-11-15T15:40:08;14.30;99.90
66710;DHT22;53624;0.000;0.000;2022-11-15T15:42:38;14.30;99.90
66710;DHT22;53624;0.000;0.000;2022-11-15T15:45:06;14.30;99.90
66710;DHT22;53624;0.000;0.000;2022-11-15T15:47:35;14.20;99.90
66710;DHT22;53624;0.000;0.000;2022-11-15T15:50:03;14.20;99.90
66710;DHT22;53624;0.000;0.000;2022-11-15T15:52:31;14.20;99.90
66710;DHT22;53624;0.000;0.000;2022-11-15T15:54:59;14.20;99.90
66710;DHT22;53624;0.000;0.000;2022-11-15T15:57:26;14.20;99.90
66710;DHT22;53624;0.000;0.000;2022-11-15T15:59:53;14.20;99.90
66710;DHT22;53624;0.000;0.000;2022-11-15T16:02:21;14.20;99.90
66710;DHT22;53624;0.000;0.000;2022-11-15T16:04:50;14.20;99.90
66710;DHT22;53624;0.000;0.000;2022-11-15T16:07:20;14.20;99.90
66710;DHT22;53624;0.000;0.000;2022-11-15T16:09:49;14.10;99.90
66710;DHT22;53624;0.000;0.000;2022-11-15T16:12:29;14.20;99.90
66710;DHT22;53624;0.000;0.000;2022-11-15T16:14:57;14.10;99.90
66710;DHT22;53624;0.000;0.000;2022-11-15T16:17:25;14.10;99.90
66710;DHT22;53624;0.000;0.000;2022-11-15T16:19:54;14.10;99.90
66710;DHT22;53624;0.000;0.000;2022-11-15T16:22:21;14.10;99.90
66710;DHT22;53624;0.000;0.000;2022-11-15T16:24:49;14.10;99.90
66710;DHT22;53624;0.000;0.000;2022-11-15T16:27:17;14.10;99.90
66710;DHT22;53624;0.000;0.000;2022-11-15T16:29:45;14.10;99.90
66710;DHT22;53624;0.000;0.000;2022-11-15T16:32:13;14.10;99.90
66710;DHT22;53624;0.000;0.000;2022-11-15T16:34:42;14.10;99.90
66710;DHT22;53624;0.000;0.000;2022-11-15T16:37:13;14.10;99.90
66710;DHT22;53624;0.000;0.000;2022-11-15T16:39:45;14.10;99.90
66710;DHT22;53624;0.000;0.000;2022-11-15T16:42:13;14.00;99.90
66710;DHT22;53624;0.000;0.000;2022-11-15T16:44:40;14.10;99.90
66710;DHT22;53624;0.000;0.000;2022-11-15T16:47:11;14.00;99.90
66710;DHT22;53624;0.000;0.000;2022-11-15T16:49:41;14.00;99.90
66710;DHT22;53624;0.000;0.000;2022-11-15T16:52:09;14.00;99.90
66710;DHT22;53624;0.000;0.000;2022-11-15T16:54:38;14.00;99.90
66710;DHT22;53624;0.000;0.000;2022-11-15T16:57:07;14.00;99.90
66710;DHT22;53624;0.000;0.000;2022-11-15T16:59:34;14.00;99.90
66710;DHT22;53624;0.000;0.000;2022-11-15T17:02:02;14.00;99.90
66710;DHT22;53624;0.000;0.000;2022-11-15T17:04:29;14.00;99.90
66710;DHT22;53624;0.000;0.000;2022-11-15T17:06:58;14.00;99.90
66710;DHT22;53624;0.000;0.000;2022-11-15T17:09:26;14.00;99.90
66710;DHT22;53624;0.000;0.000;2022-11-15T17:11:55;14.00;99.90
66710;DHT22;53624;0.000;0.000;2022-11-15T17:14:22;14.00;99.90